Time;durP1;ratioP1;P1;durP2;ratioP2;P2;SDS_P1;SDS_P2;PMS_P1;PMS_P2;Temp;Humidity;BMP_temperature;BMP_pressure;BME280_temperature;BME280_humidity;BME280_pressure;Samples;Min_cycle;Max_cycle;Signal;HPM_P1;HPM_P2
2021/12/25 00:02:19;;;;;;;7.30;4.72;;;;;;;;;;4934306;29;20023;-90
2021/12/25 00:04:44;;;;;;;9.15;5.55;;;;;;;;;;4939143;29;20040;-87
2021/12/25 00:07:10;;;;;;;8.70;4.85;;;;;;;;;;4940263;28;20031;-85
2021/12/25 00:09:35;;;;;;;7.80;5.13;;;;;;;;;;4945255;29;20044;-87
2021/12/25 00:12:01;;;;;;;6.93;5.55;;;;;;;;;;4944607;29;20019;-86
2021/12/25 00:14:26;;;;;;;9.38;5.85;;;;;;;;;;4938427;29;20039;-87
2021/12/25 00:16:53;;;;;;;9.63;5.47;;;;;;;;;;4937469;28;20035;-85
2021/12/25 00:19:18;;;;;;;7.35;5.25;;;;;;;;;;4927259;29;20485;-85
2021/12/25 00:21:44;;;;;;;8.18;5.40;;;;;;;;;;4944022;29;20063;-86
2021/12/25 00:24:10;;;;;;;8.23;5.50;;;;;;;;;;4919195;29;20027;-87
2021/12/25 00:32:32;;;;;;;7.63;5.22;;;;;;;;;;4940696;29;20028;-85
2021/12/25 00:34:57;;;;;;;8.10;4.72;;;;;;;;;;4922299;29;20031;-88
2021/12/25 00:37:23;;;;;;;9.73;5.32;;;;;;;;;;4941112;29;20388;-88
2021/12/25 00:39:48;;;;;;;7.30;5.30;;;;;;;;;;4933388;29;20488;-87
2021/12/25 00:46:25;;;;;;;9.80;5.88;;;;;;;;;;4946716;29;20100;-86
2021/12/25 00:49:39;;;;;;;8.50;5.22;;;;;;;;;;4907609;29;20048;-87
2021/12/25 00:56:55;;;;;;;7.78;5.32;;;;;;;;;;4885383;29;20121;-86
2021/12/25 01:06:20;;;;;;;8.13;5.28;;;;;;;;;;4821425;29;20133;-85
2021/12/25 01:08:46;;;;;;;7.40;5.00;;;;;;;;;;4831556;29;20042;-85
2021/12/25 01:11:15;;;;;;;12.85;4.85;;;;;;;;;;4855546;29;20063;-85
2021/12/25 01:13:48;;;;;;;7.60;5.07;;;;;;;;;;4936823;28;20099;-86
2021/12/25 01:20:08;;;;;;;6.53;5.25;;;;;;;;;;4940827;29;20389;-85
2021/12/25 01:31:05;;;;;;;;;;;;;;;;;;;;;
2021/12/25 01:36:24;;;;;;;13.05;6.72;;;;;;;;;;4934003;29;20052;-85
2021/12/25 01:49:03;;;;;;;11.25;6.50;;;;;;;;;;4937587;29;20435;-84
2021/12/25 01:51:29;;;;;;;10.68;6.55;;;;;;;;;;4923528;29;20057;-85
2021/12/25 01:53:54;;;;;;;12.10;6.72;;;;;;;;;;4926700;29;20050;-86
2021/12/25 01:56:20;;;;;;;12.23;7.75;;;;;;;;;;4929866;28;20023;-86
2021/12/25 01:58:45;;;;;;;11.43;7.88;;;;;;;;;;4934403;29;20028;-86
2021/12/25 02:01:11;;;;;;;11.38;7.60;;;;;;;;;;4922087;29;20461;-86
2021/12/25 02:03:37;;;;;;;11.20;7.90;;;;;;;;;;4929867;29;20031;-86
2021/12/25 02:06:04;;;;;;;10.98;6.72;;;;;;;;;;4923827;29;20019;-86
2021/12/25 02:08:30;;;;;;;13.10;6.93;;;;;;;;;;4933315;29;20031;-85
2021/12/25 02:10:56;;;;;;;14.63;7.15;;;;;;;;;;4932663;29;20095;-86
2021/12/25 02:13:22;;;;;;;13.02;7.65;;;;;;;;;;4958911;29;20024;-88
2021/12/25 02:15:51;;;;;;;12.13;7.35;;;;;;;;;;4936663;29;20038;-88
2021/12/25 02:19:08;;;;;;;12.07;7.30;;;;;;;;;;4937793;29;20019;-87
2021/12/25 02:21:19;;;;;;;32.95;7.63;;;;;;;;;;4933341;29;20047;-88
2021/12/25 02:23:45;;;;;;;11.50;7.20;;;;;;;;;;4927502;29;20031;-88
2021/12/25 02:26:10;;;;;;;11.15;7.78;;;;;;;;;;4940606;29;20032;-88
2021/12/25 02:28:50;;;;;;;14.52;9.55;;;;;;;;;;4922945;29;20038;-88
2021/12/25 02:31:17;;;;;;;12.75;8.57;;;;;;;;;;4917445;29;20036;-86
2021/12/25 02:33:43;;;;;;;17.38;9.93;;;;;;;;;;4932758;29;20055;-88
2021/12/25 02:36:11;;;;;;;15.43;10.35;;;;;;;;;;4932070;29;20031;-87
2021/12/25 02:38:37;;;;;;;15.15;9.68;;;;;;;;;;4948662;29;20027;-88
2021/12/25 02:41:03;;;;;;;15.82;9.93;;;;;;;;;;4916905;29;20080;-87
2021/12/25 02:43:29;;;;;;;14.65;9.95;;;;;;;;;;4932069;29;20396;-88
2021/12/25 02:45:56;;;;;;;16.35;8.88;;;;;;;;;;4922915;29;20046;-88
2021/12/25 02:48:23;;;;;;;12.65;8.98;;;;;;;;;;4940149;29;20023;-87
2021/12/25 02:50:51;;;;;;;20.20;9.77;;;;;;;;;;4920694;29;20036;-87
2021/12/25 02:53:17;;;;;;;16.05;9.43;;;;;;;;;;4921466;29;20020;-87
2021/12/25 02:58:44;;;;;;;17.17;10.95;;;;;;;;;;5101237;23;20073;-85
2021/12/25 03:01:16;;;;;;;17.50;10.55;;;;;;;;;;4936561;29;20020;-85
2021/12/25 03:03:43;;;;;;;19.92;11.52;;;;;;;;;;4943585;29;20039;-85
2021/12/25 03:06:10;;;;;;;20.45;11.70;;;;;;;;;;4954994;29;20042;-86
2021/12/25 03:08:36;;;;;;;25.35;12.88;;;;;;;;;;4954794;29;20023;-84
2021/12/25 03:11:06;;;;;;;24.15;12.65;;;;;;;;;;4949529;29;20022;-84
2021/12/25 03:15:58;;;;;;;25.73;12.90;;;;;;;;;;4933183;29;20041;-85
2021/12/25 03:18:27;;;;;;;20.77;12.90;;;;;;;;;;4923752;29;20521;-85
2021/12/25 03:20:58;;;;;;;24.40;11.68;;;;;;;;;;4924970;29;20508;-87
2021/12/25 03:23:26;;;;;;;21.52;12.50;;;;;;;;;;4922170;29;20477;-85
2021/12/25 03:25:53;;;;;;;26.60;11.23;;;;;;;;;;4938505;29;20034;-85
2021/12/25 03:28:23;;;;;;;23.08;11.30;;;;;;;;;;4931609;29;20030;-87
2021/12/25 03:30:49;;;;;;;22.25;11.70;;;;;;;;;;4934260;29;20504;-86
2021/12/25 03:33:17;;;;;;;18.50;11.18;;;;;;;;;;4930277;29;20027;-85
2021/12/25 03:35:43;;;;;;;20.77;11.27;;;;;;;;;;4942937;29;20031;-85
2021/12/25 03:38:11;;;;;;;14.10;10.30;;;;;;;;;;4936916;29;20058;-87
2021/12/25 03:40:40;;;;;;;17.58;10.18;;;;;;;;;;4931411;29;20034;-85
2021/12/25 03:46:32;;;;;;;188.05;12.60;;;;;;;;;;4904227;29;20042;-84
2021/12/25 03:49:45;;;;;;;187.98;11.57;;;;;;;;;;4921052;29;20043;-84
2021/12/25 03:57:57;;;;;;;13.23;8.57;;;;;;;;;;4934886;29;20079;-85
2021/12/25 04:00:29;;;;;;;13.05;9.05;;;;;;;;;;4933510;29;20529;-84
2021/12/25 04:02:59;;;;;;;16.13;9.48;;;;;;;;;;4919725;29;20481;-85
2021/12/25 04:05:29;;;;;;;22.85;9.38;;;;;;;;;;4923571;29;20028;-85
2021/12/25 04:10:22;;;;;;;108.90;10.77;;;;;;;;;;4938731;29;20027;-83
2021/12/25 04:13:18;;;;;;;16.88;8.25;;;;;;;;;;4932064;29;20036;-83
2021/12/25 04:16:22;;;;;;;12.57;8.20;;;;;;;;;;4919940;29;20247;-83
2021/12/25 04:18:56;;;;;;;12.00;8.13;;;;;;;;;;4933641;29;20023;-83
2021/12/25 04:21:27;;;;;;;13.18;7.45;;;;;;;;;;4946424;28;20044;-83
2021/12/25 04:23:53;;;;;;;69.15;8.93;;;;;;;;;;4918656;29;20054;-84
2021/12/25 04:26:24;;;;;;;82.25;9.20;;;;;;;;;;4917350;29;20474;-84
2021/12/25 04:50:23;;;;;;;10.55;7.68;;;;;;;;;;4937621;29;20039;-86
2021/12/25 05:03:47;;;;;;;14.48;10.32;;;;;;;;;;4943203;29;20035;-85
2021/12/25 05:06:13;;;;;;;15.90;10.50;;;;;;;;;;4921344;29;20034;-85
2021/12/25 05:08:38;;;;;;;41.97;10.88;;;;;;;;;;4936840;29;20023;-85
2021/12/25 05:11:03;;;;;;;48.05;11.27;;;;;;;;;;4937359;29;20438;-85
2021/12/25 05:13:29;;;;;;;37.70;11.68;;;;;;;;;;4936219;29;20059;-85
2021/12/25 05:15:55;;;;;;;48.08;10.93;;;;;;;;;;4931505;29;20071;-85
2021/12/25 05:18:20;;;;;;;162.60;13.70;;;;;;;;;;4944916;28;20113;-85
2021/12/25 05:20:46;;;;;;;149.10;14.07;;;;;;;;;;4921039;29;20029;-85
2021/12/25 05:23:14;;;;;;;142.80;11.50;;;;;;;;;;4920817;29;20027;-85
2021/12/25 05:25:40;;;;;;;55.30;9.18;;;;;;;;;;4918677;29;20111;-85
2021/12/25 05:28:06;;;;;;;102.07;11.70;;;;;;;;;;4939755;29;20034;-86
2021/12/25 05:30:31;;;;;;;42.78;9.27;;;;;;;;;;4923112;29;20019;-85
2021/12/25 05:32:57;;;;;;;38.10;8.88;;;;;;;;;;4941446;29;20027;-85
2021/12/25 05:35:23;;;;;;;25.63;7.90;;;;;;;;;;4931896;29;20469;-85
2021/12/25 05:37:48;;;;;;;28.60;9.27;;;;;;;;;;4940189;29;20279;-85
2021/12/25 05:40:14;;;;;;;61.90;8.60;;;;;;;;;;4946555;29;20020;-85
2021/12/25 05:42:39;;;;;;;75.53;9.20;;;;;;;;;;4941007;29;20024;-85
2021/12/25 05:45:06;;;;;;;111.05;8.98;;;;;;;;;;4923587;29;20051;-85
2021/12/25 05:47:32;;;;;;;110.55;9.60;;;;;;;;;;4918193;29;20059;-85
2021/12/25 05:49:58;;;;;;;79.78;8.65;;;;;;;;;;4941513;29;20040;-85
2021/12/25 05:52:24;;;;;;;17.02;7.90;;;;;;;;;;4924112;29;20016;-84
2021/12/25 05:54:50;;;;;;;14.75;7.95;;;;;;;;;;4936706;29;20022;-85
2021/12/25 05:57:15;;;;;;;8.05;6.32;;;;;;;;;;4921955;29;20390;-85
2021/12/25 05:59:41;;;;;;;9.90;6.65;;;;;;;;;;4940528;29;20031;-85
2021/12/25 06:02:06;;;;;;;10.02;6.60;;;;;;;;;;4920923;29;20019;-85
2021/12/25 06:04:32;;;;;;;10.27;7.32;;;;;;;;;;4935064;29;20439;-85
2021/12/25 06:06:57;;;;;;;7.88;5.82;;;;;;;;;;4936348;29;20115;-85
2021/12/25 06:09:23;;;;;;;10.45;5.32;;;;;;;;;;4937282;29;20019;-84
2021/12/25 06:11:48;;;;;;;9.00;6.05;;;;;;;;;;4936949;29;20020;-85
2021/12/25 06:14:19;;;;;;;8.43;5.70;;;;;;;;;;4911487;29;20120;-85
2021/12/25 06:16:46;;;;;;;6.75;5.25;;;;;;;;;;4936189;29;20035;-85
2021/12/25 06:19:12;;;;;;;6.07;4.15;;;;;;;;;;4944347;29;20082;-84
2021/12/25 06:21:37;;;;;;;6.35;4.55;;;;;;;;;;4924887;29;20489;-84
2021/12/25 06:24:05;;;;;;;5.15;4.13;;;;;;;;;;4937767;29;20565;-84
2021/12/25 06:26:31;;;;;;;7.22;4.18;;;;;;;;;;4916056;29;20032;-84
2021/12/25 06:28:56;;;;;;;4.88;3.83;;;;;;;;;;4938346;29;20026;-85
2021/12/25 06:31:25;;;;;;;3.97;2.92;;;;;;;;;;4936893;29;20019;-85
2021/12/25 06:33:51;;;;;;;4.18;2.58;;;;;;;;;;4946115;28;20055;-85
2021/12/25 06:36:17;;;;;;;12.98;2.85;;;;;;;;;;4935677;29;20024;-88
2021/12/25 06:38:42;;;;;;;3.47;2.25;;;;;;;;;;4924431;29;20500;-88
2021/12/25 06:41:10;;;;;;;2.92;2.33;;;;;;;;;;4945622;28;20406;-86
2021/12/25 06:43:36;;;;;;;6.13;2.80;;;;;;;;;;4938962;29;20023;-87
2021/12/25 06:46:02;;;;;;;3.50;2.60;;;;;;;;;;4938030;29;20036;-87
2021/12/25 06:48:28;;;;;;;5.03;3.00;;;;;;;;;;4922714;29;20028;-86
2021/12/25 06:50:54;;;;;;;3.50;2.67;;;;;;;;;;4931045;29;20095;-86
2021/12/25 06:53:19;;;;;;;6.57;2.88;;;;;;;;;;4938689;29;20493;-86
2021/12/25 06:55:44;;;;;;;3.95;2.90;;;;;;;;;;4929567;29;20506;-85
2021/12/25 06:58:10;;;;;;;4.47;3.05;;;;;;;;;;4938348;29;20031;-87
2021/12/25 07:00:35;;;;;;;5.03;3.65;;;;;;;;;;4940149;29;20028;-87
2021/12/25 07:03:01;;;;;;;6.35;3.40;;;;;;;;;;4922637;29;20031;-87
2021/12/25 07:05:26;;;;;;;6.05;3.50;;;;;;;;;;4922911;29;20122;-86
2021/12/25 07:07:52;;;;;;;6.35;3.00;;;;;;;;;;4932736;29;20020;-85
2021/12/25 07:10:18;;;;;;;4.53;2.85;;;;;;;;;;4943240;29;20035;-86
2021/12/25 07:12:47;;;;;;;3.88;2.63;;;;;;;;;;4925235;29;20035;-86
2021/12/25 07:15:15;;;;;;;5.90;3.15;;;;;;;;;;4922171;29;20031;-85
2021/12/25 07:17:42;;;;;;;4.25;3.00;;;;;;;;;;4922621;29;20074;-85
2021/12/25 07:20:09;;;;;;;6.07;3.30;;;;;;;;;;4946402;29;20028;-86
2021/12/25 07:22:34;;;;;;;4.97;3.55;;;;;;;;;;4921094;29;20042;-85
2021/12/25 07:25:00;;;;;;;8.40;3.97;;;;;;;;;;4939128;29;20031;-86
2021/12/25 07:27:25;;;;;;;6.88;3.95;;;;;;;;;;4922456;29;20023;-85
2021/12/25 07:29:51;;;;;;;7.43;3.90;;;;;;;;;;4950371;29;20033;-85
2021/12/25 07:32:19;;;;;;;7.88;4.35;;;;;;;;;;4953669;29;20462;-85
2021/12/25 07:34:46;;;;;;;8.07;4.53;;;;;;;;;;4938983;29;20490;-86
2021/12/25 07:37:13;;;;;;;9.00;4.93;;;;;;;;;;4935924;29;20103;-85
2021/12/25 07:39:39;;;;;;;8.30;4.88;;;;;;;;;;4942166;29;20054;-86
2021/12/25 07:42:05;;;;;;;9.95;4.43;;;;;;;;;;4951221;29;20137;-85
2021/12/25 07:44:31;;;;;;;8.82;4.85;;;;;;;;;;4944473;29;20064;-85
2021/12/25 07:47:22;;;;;;;9.32;4.63;;;;;;;;;;4936580;29;20157;-85
2021/12/25 07:53:26;;;;;;;7.35;4.40;;;;;;;;;;4952776;29;20083;-85
2021/12/25 07:56:26;;;;;;;5.43;4.05;;;;;;;;;;4941921;29;20028;-85
2021/12/25 07:58:53;;;;;;;8.25;4.00;;;;;;;;;;4952256;28;20528;-85
2021/12/25 08:01:19;;;;;;;8.20;4.50;;;;;;;;;;4935546;29;20435;-86
2021/12/25 08:03:44;;;;;;;11.35;4.35;;;;;;;;;;4937489;29;20393;-86
2021/12/25 08:06:10;;;;;;;5.82;3.83;;;;;;;;;;4932066;29;20024;-86
2021/12/25 08:08:35;;;;;;;6.22;3.75;;;;;;;;;;4937139;29;20067;-86
2021/12/25 08:11:00;;;;;;;9.45;4.18;;;;;;;;;;4946412;29;20465;-86
2021/12/25 08:13:26;;;;;;;5.72;3.40;;;;;;;;;;4950302;28;20027;-86
2021/12/25 08:15:52;;;;;;;7.07;3.78;;;;;;;;;;4914796;29;20028;-86
2021/12/25 08:18:17;;;;;;;10.35;4.03;;;;;;;;;;4912104;29;20179;-86
2021/12/25 08:20:43;;;;;;;10.52;4.45;;;;;;;;;;4918888;29;20038;-86
2021/12/25 08:23:08;;;;;;;6.45;3.78;;;;;;;;;;4963946;28;20039;-86
2021/12/25 08:25:34;;;;;;;7.72;3.92;;;;;;;;;;4936898;29;20043;-86
2021/12/25 08:28:00;;;;;;;5.95;3.60;;;;;;;;;;4943101;29;20028;-86
2021/12/25 08:30:27;;;;;;;6.13;3.45;;;;;;;;;;4941653;29;20030;-86
2021/12/25 08:32:55;;;;;;;4.78;3.50;;;;;;;;;;4940844;29;20023;-86
2021/12/25 08:35:23;;;;;;;5.13;3.25;;;;;;;;;;4939070;29;20042;-86
2021/12/25 08:37:48;;;;;;;6.47;3.30;;;;;;;;;;4943593;29;20043;-87
2021/12/25 08:40:14;;;;;;;5.90;3.90;;;;;;;;;;4934451;29;20125;-86
2021/12/25 08:42:46;;;;;;;10.38;3.75;;;;;;;;;;4936759;29;20062;-86
2021/12/25 08:46:02;;;;;;;7.80;3.78;;;;;;;;;;4932309;29;20027;-86
2021/12/25 08:47:59;;;;;;;7.57;4.07;;;;;;;;;;4933961;29;20115;-86
2021/12/25 08:50:24;;;;;;;9.30;3.67;;;;;;;;;;4933623;29;20039;-86
2021/12/25 08:52:50;;;;;;;8.82;3.25;;;;;;;;;;4954463;29;20019;-85
2021/12/25 08:55:15;;;;;;;7.13;3.75;;;;;;;;;;4949172;29;20118;-86
2021/12/25 08:57:41;;;;;;;6.90;3.38;;;;;;;;;;4929516;29;20027;-85
2021/12/25 09:00:08;;;;;;;6.72;2.63;;;;;;;;;;4952476;29;20064;-84
2021/12/25 09:02:33;;;;;;;9.35;3.15;;;;;;;;;;4961414;29;20050;-85
2021/12/25 09:04:58;;;;;;;4.88;3.10;;;;;;;;;;4935239;29;20020;-85
2021/12/25 09:07:24;;;;;;;4.93;3.20;;;;;;;;;;4934365;29;20063;-87
2021/12/25 09:09:49;;;;;;;4.45;3.20;;;;;;;;;;4943161;29;20036;-87
2021/12/25 09:12:16;;;;;;;5.78;3.33;;;;;;;;;;4955361;29;20034;-87
2021/12/25 09:14:43;;;;;;;6.00;2.97;;;;;;;;;;4948780;29;20050;-86
2021/12/25 09:17:17;;;;;;;5.95;2.88;;;;;;;;;;4931142;29;20351;-85
2021/12/25 09:19:43;;;;;;;7.20;2.80;;;;;;;;;;4926742;29;20027;-86
2021/12/25 09:22:11;;;;;;;7.35;3.65;;;;;;;;;;4943787;29;20035;-85
2021/12/25 09:24:37;;;;;;;9.40;3.10;;;;;;;;;;4962400;29;20051;-85
2021/12/25 09:27:04;;;;;;;5.90;2.85;;;;;;;;;;4947141;29;20082;-86
2021/12/25 09:29:30;;;;;;;4.38;2.95;;;;;;;;;;4949803;29;20046;-87
2021/12/25 09:31:55;;;;;;;4.32;3.10;;;;;;;;;;4954336;28;20027;-86
2021/12/25 09:34:21;;;;;;;4.45;3.58;;;;;;;;;;4927412;29;20028;-85
2021/12/25 09:36:46;;;;;;;4.78;3.05;;;;;;;;;;4936926;29;20080;-85
2021/12/25 09:39:12;;;;;;;5.60;3.15;;;;;;;;;;4957909;29;20110;-87
2021/12/25 09:41:37;;;;;;;4.50;3.00;;;;;;;;;;4935341;29;20474;-86
2021/12/25 09:44:04;;;;;;;7.53;3.58;;;;;;;;;;4936800;29;20047;-86
2021/12/25 09:46:30;;;;;;;4.13;3.00;;;;;;;;;;4948829;29;20087;-87
2021/12/25 09:48:55;;;;;;;5.50;3.10;;;;;;;;;;4924463;29;20857;-86
2021/12/25 09:51:21;;;;;;;6.25;3.97;;;;;;;;;;4947777;29;20129;-86
2021/12/25 09:53:55;;;;;;;4.28;2.90;;;;;;;;;;4947037;28;20036;-86
2021/12/25 09:56:21;;;;;;;4.38;2.92;;;;;;;;;;4937213;29;20031;-86
2021/12/25 09:58:47;;;;;;;6.25;3.13;;;;;;;;;;4941932;29;20035;-85
2021/12/25 10:01:13;;;;;;;4.10;2.78;;;;;;;;;;4940695;29;20426;-86
2021/12/25 10:03:47;;;;;;;3.80;2.35;;;;;;;;;;4926746;29;20459;-85
2021/12/25 10:06:34;;;;;;;4.50;2.47;;;;;;;;;;4943862;29;20024;-86
2021/12/25 10:09:24;;;;;;;3.50;2.55;;;;;;;;;;4939711;29;20028;-86
2021/12/25 10:12:09;;;;;;;2.30;1.88;;;;;;;;;;4951745;28;20034;-86
2021/12/25 10:14:37;;;;;;;3.13;1.85;;;;;;;;;;4916405;29;20035;-85
2021/12/25 10:17:44;;;;;;;2.83;1.80;;;;;;;;;;4941989;29;20046;-87
2021/12/25 10:20:30;;;;;;;2.03;1.50;;;;;;;;;;4936710;29;20031;-87
2021/12/25 10:23:08;;;;;;;4.30;1.83;;;;;;;;;;4942567;29;20040;-85
2021/12/25 10:25:56;;;;;;;3.25;2.22;;;;;;;;;;4925099;29;20027;-86
2021/12/25 10:28:27;;;;;;;4.75;2.03;;;;;;;;;;4929522;29;20032;-84
2021/12/25 10:30:59;;;;;;;2.88;1.67;;;;;;;;;;4941184;29;20031;-86
2021/12/25 10:33:49;;;;;;;3.50;1.90;;;;;;;;;;4946866;29;20024;-86
2021/12/25 10:36:43;;;;;;;3.88;2.30;;;;;;;;;;4944245;29;20024;-87
2021/12/25 10:39:18;;;;;;;3.53;1.90;;;;;;;;;;4923764;29;20090;-87
2021/12/25 10:41:54;;;;;;;2.67;1.80;;;;;;;;;;4946992;28;20031;-86
2021/12/25 10:44:29;;;;;;;4.57;2.22;;;;;;;;;;4907096;29;20042;-86
2021/12/25 10:47:00;;;;;;;1.35;1.25;;;;;;;;;;4924199;29;20123;-85
2021/12/25 10:49:42;;;;;;;2.50;1.50;;;;;;;;;;4926545;29;20135;-88
2021/12/25 10:52:21;;;;;;;3.40;1.20;;;;;;;;;;4925482;29;20035;-86
2021/12/25 10:54:57;;;;;;;1.55;1.40;;;;;;;;;;4907733;29;20107;-87
2021/12/25 10:57:38;;;;;;;4.18;2.20;;;;;;;;;;4927107;29;20032;-85
2021/12/25 11:00:24;;;;;;;2.08;1.77;;;;;;;;;;4918546;29;20032;-85
2021/12/25 11:03:03;;;;;;;2.63;1.83;;;;;;;;;;4939388;29;20062;-84
2021/12/25 11:05:31;;;;;;;4.30;1.88;;;;;;;;;;4926714;29;20039;-83
2021/12/25 11:08:12;;;;;;;3.03;1.48;;;;;;;;;;4927043;29;20024;-86
2021/12/25 11:11:11;;;;;;;1.50;1.38;;;;;;;;;;4936437;29;20023;-87
2021/12/25 11:13:37;;;;;;;2.58;1.83;;;;;;;;;;4926122;29;20091;-86
2021/12/25 11:16:16;;;;;;;2.63;1.67;;;;;;;;;;4933572;29;20110;-85
2021/12/25 11:19:09;;;;;;;3.75;1.67;;;;;;;;;;4921433;29;20486;-83
2021/12/25 11:21:44;;;;;;;5.07;2.00;;;;;;;;;;4904100;29;20028;-86
2021/12/25 11:24:09;;;;;;;2.13;1.60;;;;;;;;;;4912396;29;20035;-85
2021/12/25 11:26:35;;;;;;;2.55;1.77;;;;;;;;;;4936546;29;20500;-86
2021/12/25 11:29:05;;;;;;;2.03;1.77;;;;;;;;;;4926253;29;20119;-86
2021/12/25 11:31:31;;;;;;;2.17;1.75;;;;;;;;;;4935773;29;20067;-86
2021/12/25 11:33:58;;;;;;;2.38;2.03;;;;;;;;;;4925542;29;20098;-84
2021/12/25 11:36:26;;;;;;;2.38;1.70;;;;;;;;;;4942678;29;20035;-84
2021/12/25 11:38:52;;;;;;;1.85;1.63;;;;;;;;;;4924060;29;20035;-86
2021/12/25 11:41:24;;;;;;;8.13;1.92;;;;;;;;;;4937896;29;20035;-85
2021/12/25 11:43:51;;;;;;;5.07;1.98;;;;;;;;;;4939332;29;20419;-86
2021/12/25 11:46:16;;;;;;;1.98;1.65;;;;;;;;;;4956276;29;20031;-89
2021/12/25 11:48:42;;;;;;;20.05;11.23;;;;;;;;;;4954112;29;20055;-91
2021/12/25 11:51:29;;;;;;;3.00;2.22;;;;;;;;;;4922348;29;20505;-88
2021/12/25 11:56:41;;;;;;;2.77;2.00;;;;;;;;;;4921975;29;20040;-88
2021/12/25 11:59:22;;;;;;;2.45;1.88;;;;;;;;;;4907301;29;20096;-90
2021/12/25 12:01:49;;;;;;;2.75;2.15;;;;;;;;;;4923018;29;20059;-87
2021/12/25 12:04:19;;;;;;;2.88;2.20;;;;;;;;;;4940108;29;20105;-88
2021/12/25 12:06:48;;;;;;;3.55;2.50;;;;;;;;;;4922759;29;20038;-90
2021/12/25 12:09:17;;;;;;;6.78;2.53;;;;;;;;;;4924754;29;20038;-87
2021/12/25 12:11:48;;;;;;;2.03;1.65;;;;;;;;;;4923732;29;20020;-87
2021/12/25 12:14:19;;;;;;;2.80;2.20;;;;;;;;;;4908312;29;20028;-86
2021/12/25 12:17:20;;;;;;;3.75;1.98;;;;;;;;;;4924062;29;20091;-86
2021/12/25 12:20:01;;;;;;;2.33;2.08;;;;;;;;;;4911824;29;20044;-89
2021/12/25 12:25:42;;;;;;;4.75;2.40;;;;;;;;;;4941908;29;20028;-86
2021/12/25 12:28:08;;;;;;;3.38;2.47;;;;;;;;;;4925187;29;20039;-86
2021/12/25 12:30:38;;;;;;;3.00;2.50;;;;;;;;;;4939940;29;20035;-87
2021/12/25 12:33:23;;;;;;;4.40;3.13;;;;;;;;;;4954376;29;20027;-87
2021/12/25 12:35:59;;;;;;;4.38;3.33;;;;;;;;;;4939137;29;20036;-86
2021/12/25 12:38:47;;;;;;;8.07;3.28;;;;;;;;;;4930240;29;20047;-87
2021/12/25 12:41:38;;;;;;;4.45;3.10;;;;;;;;;;4939286;29;20032;-87
2021/12/25 12:44:12;;;;;;;8.40;3.40;;;;;;;;;;4921595;29;20075;-88
2021/12/25 12:46:50;;;;;;;5.03;3.90;;;;;;;;;;4922019;29;20027;-88
2021/12/25 12:49:18;;;;;;;5.65;3.45;;;;;;;;;;4923828;29;20398;-88
2021/12/25 12:51:44;;;;;;;4.40;2.70;;;;;;;;;;4922935;29;20020;-88
2021/12/25 12:54:10;;;;;;;5.65;3.50;;;;;;;;;;4939072;29;20031;-88
2021/12/25 12:56:36;;;;;;;4.05;3.17;;;;;;;;;;4940782;29;20027;-88
2021/12/25 12:59:03;;;;;;;4.03;3.17;;;;;;;;;;4924463;29;20095;-88
2021/12/25 13:01:32;;;;;;;3.88;3.15;;;;;;;;;;4940952;29;20027;-88
2021/12/25 13:04:02;;;;;;;5.38;3.10;;;;;;;;;;4940704;29;20122;-87
2021/12/25 13:06:29;;;;;;;6.82;3.75;;;;;;;;;;4922871;29;20051;-88
2021/12/25 13:08:58;;;;;;;6.75;3.53;;;;;;;;;;4923248;29;20075;-87
2021/12/25 13:11:28;;;;;;;4.43;3.10;;;;;;;;;;4922843;29;20423;-87
2021/12/25 13:13:58;;;;;;;6.03;3.75;;;;;;;;;;4922263;29;20024;-87
2021/12/25 13:16:31;;;;;;;4.75;3.53;;;;;;;;;;4924480;29;20108;-86
2021/12/25 13:19:00;;;;;;;7.07;3.75;;;;;;;;;;4940796;29;20027;-87
2021/12/25 13:21:27;;;;;;;7.03;3.92;;;;;;;;;;4947348;29;20020;-87
2021/12/25 13:23:56;;;;;;;6.38;3.78;;;;;;;;;;4937989;29;20024;-88
2021/12/25 13:26:36;;;;;;;7.68;4.05;;;;;;;;;;4939471;29;20486;-89
2021/12/25 13:29:06;;;;;;;5.07;3.45;;;;;;;;;;4938161;29;20043;-88
2021/12/25 13:31:33;;;;;;;5.30;3.60;;;;;;;;;;4933997;29;20024;-89
2021/12/25 13:34:12;;;;;;;6.28;3.72;;;;;;;;;;4947851;29;20482;-88
2021/12/25 13:36:39;;;;;;;6.43;3.45;;;;;;;;;;4920416;29;20036;-89
2021/12/25 13:39:13;;;;;;;4.93;3.80;;;;;;;;;;4919997;29;20058;-88
2021/12/25 13:41:52;;;;;;;7.22;3.58;;;;;;;;;;4942134;29;20036;-89
2021/12/25 13:44:34;;;;;;;7.90;3.75;;;;;;;;;;4931487;29;20076;-88
2021/12/25 13:47:39;;;;;;;4.45;3.13;;;;;;;;;;4930068;29;20466;-90
2021/12/25 13:50:10;;;;;;;5.22;3.85;;;;;;;;;;4932867;29;20023;-88
2021/12/25 13:52:39;;;;;;;5.57;3.70;;;;;;;;;;4940363;29;20110;-90
2021/12/25 13:55:34;;;;;;;6.25;3.65;;;;;;;;;;4912900;29;20012;-87
2021/12/25 13:58:04;;;;;;;6.05;3.97;;;;;;;;;;4905819;29;20089;-88
2021/12/25 14:00:39;;;;;;;8.60;5.30;;;;;;;;;;4914790;29;20420;-89
2021/12/25 14:03:11;;;;;;;10.70;6.20;;;;;;;;;;4951998;28;20027;-86
2021/12/25 14:05:40;;;;;;;8.05;6.25;;;;;;;;;;4933930;29;20047;-88
2021/12/25 14:08:07;;;;;;;8.95;6.13;;;;;;;;;;4942218;29;20024;-85
2021/12/25 14:10:34;;;;;;;9.30;6.30;;;;;;;;;;4926151;29;20051;-86
2021/12/25 14:13:03;;;;;;;11.13;7.05;;;;;;;;;;4933066;29;20410;-86
2021/12/25 14:15:33;;;;;;;10.48;7.20;;;;;;;;;;4924522;29;20052;-87
2021/12/25 14:18:03;;;;;;;9.88;7.25;;;;;;;;;;4935596;29;20067;-87
2021/12/25 14:20:36;;;;;;;8.60;6.22;;;;;;;;;;4934523;29;20039;-87
2021/12/25 14:23:05;;;;;;;11.55;8.10;;;;;;;;;;4943914;29;20039;-88
2021/12/25 14:25:34;;;;;;;15.35;8.13;;;;;;;;;;4948608;29;20385;-87
2021/12/25 14:28:00;;;;;;;13.82;8.02;;;;;;;;;;4926025;29;20059;-86
2021/12/25 14:30:26;;;;;;;13.95;9.40;;;;;;;;;;4934217;29;20027;-87
2021/12/25 14:32:52;;;;;;;13.70;8.35;;;;;;;;;;4938556;29;20107;-87
2021/12/25 14:35:20;;;;;;;16.25;9.38;;;;;;;;;;4945287;29;20430;-88
2021/12/25 14:37:47;;;;;;;15.57;8.73;;;;;;;;;;4936694;29;20028;-89
2021/12/25 14:40:12;;;;;;;14.68;9.05;;;;;;;;;;4933009;29;20083;-90
2021/12/25 14:42:49;;;;;;;14.48;9.00;;;;;;;;;;4934011;29;20032;-87
2021/12/25 14:45:17;;;;;;;14.65;9.30;;;;;;;;;;4925139;29;20028;-87
2021/12/25 14:47:56;;;;;;;17.00;10.35;;;;;;;;;;4931001;29;20038;-86
2021/12/25 14:50:32;;;;;;;19.75;10.57;;;;;;;;;;4934395;29;20055;-87
2021/12/25 14:53:16;;;;;;;13.73;9.05;;;;;;;;;;4923984;29;20024;-89
2021/12/25 14:56:03;;;;;;;15.40;9.10;;;;;;;;;;4948350;29;20030;-87
2021/12/25 14:58:35;;;;;;;20.08;8.98;;;;;;;;;;4930902;29;20035;-86
2021/12/25 15:01:03;;;;;;;12.73;9.35;;;;;;;;;;4942491;28;20030;-88
2021/12/25 15:03:29;;;;;;;11.48;7.78;;;;;;;;;;4961751;28;20063;-87
2021/12/25 15:05:55;;;;;;;17.58;8.50;;;;;;;;;;4963676;29;20031;-87
2021/12/25 15:08:26;;;;;;;12.70;7.93;;;;;;;;;;4958987;29;20031;-87
2021/12/25 15:10:53;;;;;;;14.30;8.98;;;;;;;;;;4958853;29;20497;-88
2021/12/25 15:13:22;;;;;;;15.25;9.50;;;;;;;;;;4958973;28;20042;-87
2021/12/25 15:15:50;;;;;;;13.57;9.30;;;;;;;;;;4960179;29;20027;-87
2021/12/25 15:18:29;;;;;;;14.52;8.23;;;;;;;;;;4943307;29;20054;-87
2021/12/25 15:21:15;;;;;;;17.08;8.32;;;;;;;;;;4959226;29;20027;-87
2021/12/25 15:23:42;;;;;;;13.40;8.23;;;;;;;;;;4941620;29;20038;-87
2021/12/25 15:26:11;;;;;;;12.65;7.55;;;;;;;;;;4956465;29;20038;-87
2021/12/25 15:28:43;;;;;;;13.32;8.35;;;;;;;;;;4937187;29;20038;-87
2021/12/25 15:31:17;;;;;;;14.38;8.75;;;;;;;;;;4956120;28;20103;-88
2021/12/25 15:33:45;;;;;;;14.25;8.80;;;;;;;;;;4920885;29;20472;-88
2021/12/25 15:36:14;;;;;;;16.35;9.68;;;;;;;;;;4927909;29;20066;-87
2021/12/25 15:38:39;;;;;;;16.35;9.60;;;;;;;;;;4939857;29;20031;-86
2021/12/25 15:41:09;;;;;;;14.27;9.27;;;;;;;;;;4955869;29;20035;-86
2021/12/25 15:43:35;;;;;;;10.98;7.72;;;;;;;;;;4931973;29;20028;-86
2021/12/25 15:46:03;;;;;;;10.93;7.13;;;;;;;;;;4929699;29;20052;-87
2021/12/25 15:48:32;;;;;;;12.48;8.02;;;;;;;;;;4906276;29;20513;-86
2021/12/25 15:50:58;;;;;;;12.15;8.27;;;;;;;;;;4921345;29;20021;-86
2021/12/25 15:53:23;;;;;;;12.48;8.07;;;;;;;;;;4940714;29;20553;-86
2021/12/25 15:55:49;;;;;;;14.80;7.93;;;;;;;;;;4929925;29;20027;-88
2021/12/25 15:58:18;;;;;;;13.25;8.68;;;;;;;;;;4924252;29;20023;-87
2021/12/25 16:00:45;;;;;;;17.13;7.55;;;;;;;;;;4948670;29;20055;-86
2021/12/25 16:03:12;;;;;;;13.65;7.20;;;;;;;;;;4938215;29;20023;-88
2021/12/25 16:05:38;;;;;;;8.60;6.32;;;;;;;;;;4919043;29;20028;-86
2021/12/25 16:08:04;;;;;;;8.23;6.30;;;;;;;;;;4939996;29;20036;-86
2021/12/25 16:10:30;;;;;;;11.07;6.60;;;;;;;;;;4924053;29;20023;-84
2021/12/25 16:12:56;;;;;;;9.23;6.82;;;;;;;;;;4938204;29;20030;-85
2021/12/25 16:15:21;;;;;;;7.65;5.68;;;;;;;;;;4934315;29;20035;-85
2021/12/25 16:17:47;;;;;;;10.40;6.93;;;;;;;;;;4940706;29;20039;-86
2021/12/25 16:20:14;;;;;;;10.50;7.15;;;;;;;;;;4954934;29;20171;-84
2021/12/25 16:22:41;;;;;;;13.48;8.13;;;;;;;;;;4955685;29;20028;-83
2021/12/25 16:25:07;;;;;;;12.15;8.77;;;;;;;;;;4938637;29;20190;-85
2021/12/25 16:27:32;;;;;;;10.63;6.93;;;;;;;;;;4955385;29;20061;-85
2021/12/25 16:29:58;;;;;;;10.23;7.13;;;;;;;;;;4938355;29;20008;-85
2021/12/25 16:32:23;;;;;;;11.50;7.88;;;;;;;;;;4932031;29;20020;-86
2021/12/25 16:34:49;;;;;;;10.98;7.28;;;;;;;;;;4926694;29;20027;-84
2021/12/25 16:37:14;;;;;;;10.63;7.25;;;;;;;;;;4948587;29;20058;-86
2021/12/25 16:39:41;;;;;;;10.90;7.45;;;;;;;;;;4945124;29;20406;-85